sensor_id;sensor_type;location;lat;lon;timestamp;P1;durP1;ratioP1;P2;durP2;ratioP2
5823;SDS011;2938;52.254;12.988;2023-06-04T00:02:24;5.40;;;4.22;;
5823;SDS011;2938;52.254;12.988;2023-06-04T00:04:54;12.88;;;4.47;;
5823;SDS011;2938;52.254;12.988;2023-06-04T00:07:19;7.97;;;4.18;;
5823;SDS011;2938;52.254;12.988;2023-06-04T00:09:48;8.68;;;4.20;;
5823;SDS011;2938;52.254;12.988;2023-06-04T00:12:16;6.32;;;3.78;;
5823;SDS011;2938;52.254;12.988;2023-06-04T00:14:42;10.82;;;4.60;;
5823;SDS011;2938;52.254;12.988;2023-06-04T00:17:13;8.48;;;3.72;;
5823;SDS011;2938;52.254;12.988;2023-06-04T00:19:45;10.30;;;4.90;;
5823;SDS011;2938;52.254;12.988;2023-06-04T00:22:16;6.47;;;3.70;;
5823;SDS011;2938;52.254;12.988;2023-06-04T00:24:46;9.23;;;3.72;;
5823;SDS011;2938;52.254;12.988;2023-06-04T00:27:16;9.82;;;4.05;;
5823;SDS011;2938;52.254;12.988;2023-06-04T00:29:42;6.65;;;2.97;;
5823;SDS011;2938;52.254;12.988;2023-06-04T00:32:11;10.20;;;2.65;;
5823;SDS011;2938;52.254;12.988;2023-06-04T00:34:39;5.63;;;2.78;;
5823;SDS011;2938;52.254;12.988;2023-06-04T00:37:07;3.72;;;2.72;;
5823;SDS011;2938;52.254;12.988;2023-06-04T00:39:36;5.30;;;2.67;;
5823;SDS011;2938;52.254;12.988;2023-06-04T00:42:01;9.65;;;3.00;;
5823;SDS011;2938;52.254;12.988;2023-06-04T00:44:26;3.70;;;2.63;;
5823;SDS011;2938;52.254;12.988;2023-06-04T00:46:55;4.10;;;2.60;;
5823;SDS011;2938;52.254;12.988;2023-06-04T00:49:23;3.10;;;2.50;;
5823;SDS011;2938;52.254;12.988;2023-06-04T00:51:52;5.00;;;2.90;;
5823;SDS011;2938;52.254;12.988;2023-06-04T00:54:17;5.40;;;3.00;;
5823;SDS011;2938;52.254;12.988;2023-06-04T00:56:45;2.63;;;2.42;;
5823;SDS011;2938;52.254;12.988;2023-06-04T00:59:10;6.38;;;2.53;;
5823;SDS011;2938;52.254;12.988;2023-06-04T01:07:05;9.27;;;2.95;;
5823;SDS011;2938;52.254;12.988;2023-06-04T01:09:38;4.32;;;3.13;;
5823;SDS011;2938;52.254;12.988;2023-06-04T01:12:04;6.35;;;3.60;;
5823;SDS011;2938;52.254;12.988;2023-06-04T01:14:39;5.47;;;3.35;;
5823;SDS011;2938;52.254;12.988;2023-06-04T01:17:07;2.95;;;2.50;;
5823;SDS011;2938;52.254;12.988;2023-06-04T01:28:09;6.50;;;2.58;;
5823;SDS011;2938;52.254;12.988;2023-06-04T01:30:37;4.70;;;3.30;;
5823;SDS011;2938;52.254;12.988;2023-06-04T01:33:08;6.50;;;2.95;;
5823;SDS011;2938;52.254;12.988;2023-06-04T01:35:37;4.75;;;3.17;;
5823;SDS011;2938;52.254;12.988;2023-06-04T01:38:02;5.25;;;3.75;;
5823;SDS011;2938;52.254;12.988;2023-06-04T01:40:28;7.25;;;3.05;;
5823;SDS011;2938;52.254;12.988;2023-06-04T01:42:59;3.55;;;3.05;;
5823;SDS011;2938;52.254;12.988;2023-06-04T01:45:25;4.28;;;2.95;;
5823;SDS011;2938;52.254;12.988;2023-06-04T01:47:57;7.20;;;3.25;;
5823;SDS011;2938;52.254;12.988;2023-06-04T01:50:24;13.23;;;4.45;;
5823;SDS011;2938;52.254;12.988;2023-06-04T01:52:49;15.88;;;3.25;;
5823;SDS011;2938;52.254;12.988;2023-06-04T01:55:15;4.47;;;3.45;;
5823;SDS011;2938;52.254;12.988;2023-06-04T01:57:44;7.55;;;3.15;;
5823;SDS011;2938;52.254;12.988;2023-06-04T02:00:13;5.18;;;3.75;;
5823;SDS011;2938;52.254;12.988;2023-06-04T02:02:43;4.22;;;3.42;;
5823;SDS011;2938;52.254;12.988;2023-06-04T02:05:10;4.80;;;3.50;;
5823;SDS011;2938;52.254;12.988;2023-06-04T02:07:39;4.32;;;3.35;;
5823;SDS011;2938;52.254;12.988;2023-06-04T02:12:38;6.15;;;3.63;;
5823;SDS011;2938;52.254;12.988;2023-06-04T02:15:10;5.88;;;3.80;;
5823;SDS011;2938;52.254;12.988;2023-06-04T02:17:37;5.13;;;4.20;;
5823;SDS011;2938;52.254;12.988;2023-06-04T02:20:07;10.30;;;3.88;;
5823;SDS011;2938;52.254;12.988;2023-06-04T02:22:34;6.50;;;3.95;;
5823;SDS011;2938;52.254;12.988;2023-06-04T02:25:03;5.38;;;3.80;;
5823;SDS011;2938;52.254;12.988;2023-06-04T02:27:33;4.63;;;3.67;;
5823;SDS011;2938;52.254;12.988;2023-06-04T02:30:07;8.38;;;4.65;;
5823;SDS011;2938;52.254;12.988;2023-06-04T02:32:38;9.88;;;4.68;;
5823;SDS011;2938;52.254;12.988;2023-06-04T02:35:29;7.10;;;4.72;;
5823;SDS011;2938;52.254;12.988;2023-06-04T02:37:55;11.15;;;4.15;;
5823;SDS011;2938;52.254;12.988;2023-06-04T02:40:23;5.28;;;4.00;;
5823;SDS011;2938;52.254;12.988;2023-06-04T02:42:53;10.20;;;3.83;;
5823;SDS011;2938;52.254;12.988;2023-06-04T02:45:28;4.80;;;3.67;;
5823;SDS011;2938;52.254;12.988;2023-06-04T02:47:56;7.47;;;3.10;;
5823;SDS011;2938;52.254;12.988;2023-06-04T02:50:25;6.22;;;4.22;;
5823;SDS011;2938;52.254;12.988;2023-06-04T02:52:53;5.97;;;3.67;;
5823;SDS011;2938;52.254;12.988;2023-06-04T02:55:28;5.68;;;4.32;;
5823;SDS011;2938;52.254;12.988;2023-06-04T02:57:53;3.75;;;3.38;;
5823;SDS011;2938;52.254;12.988;2023-06-04T03:00:27;7.00;;;4.20;;
5823;SDS011;2938;52.254;12.988;2023-06-04T03:02:53;3.83;;;3.28;;
5823;SDS011;2938;52.254;12.988;2023-06-04T03:05:29;6.75;;;3.38;;
5823;SDS011;2938;52.254;12.988;2023-06-04T03:08:01;5.82;;;4.18;;
5823;SDS011;2938;52.254;12.988;2023-06-04T03:10:32;4.05;;;3.63;;
5823;SDS011;2938;52.254;12.988;2023-06-04T03:12:58;5.00;;;3.78;;
5823;SDS011;2938;52.254;12.988;2023-06-04T03:15:26;4.82;;;3.40;;
5823;SDS011;2938;52.254;12.988;2023-06-04T03:17:51;5.50;;;4.53;;
5823;SDS011;2938;52.254;12.988;2023-06-04T03:20:20;5.32;;;3.97;;
5823;SDS011;2938;52.254;12.988;2023-06-04T03:22:48;6.43;;;3.42;;
5823;SDS011;2938;52.254;12.988;2023-06-04T03:25:14;4.68;;;3.67;;
5823;SDS011;2938;52.254;12.988;2023-06-04T03:27:40;8.25;;;3.70;;
5823;SDS011;2938;52.254;12.988;2023-06-04T03:30:08;3.92;;;3.60;;
5823;SDS011;2938;52.254;12.988;2023-06-04T03:32:37;7.53;;;3.72;;
5823;SDS011;2938;52.254;12.988;2023-06-04T03:35:03;3.47;;;3.17;;
5823;SDS011;2938;52.254;12.988;2023-06-04T03:37:28;11.60;;;3.58;;
5823;SDS011;2938;52.254;12.988;2023-06-04T03:39:56;6.10;;;3.30;;
5823;SDS011;2938;52.254;12.988;2023-06-04T03:42:25;7.22;;;4.38;;
5823;SDS011;2938;52.254;12.988;2023-06-04T03:44:53;7.35;;;4.00;;
5823;SDS011;2938;52.254;12.988;2023-06-04T03:47:19;6.88;;;4.13;;
5823;SDS011;2938;52.254;12.988;2023-06-04T03:49:44;5.05;;;4.25;;
5823;SDS011;2938;52.254;12.988;2023-06-04T03:52:13;7.13;;;3.72;;
5823;SDS011;2938;52.254;12.988;2023-06-04T03:54:44;10.00;;;4.43;;
5823;SDS011;2938;52.254;12.988;2023-06-04T03:57:16;5.53;;;4.03;;
5823;SDS011;2938;52.254;12.988;2023-06-04T03:59:43;7.78;;;4.90;;
5823;SDS011;2938;52.254;12.988;2023-06-04T04:02:13;4.38;;;3.97;;
5823;SDS011;2938;52.254;12.988;2023-06-04T04:04:41;4.97;;;4.47;;
5823;SDS011;2938;52.254;12.988;2023-06-04T04:07:07;5.60;;;4.13;;
5823;SDS011;2938;52.254;12.988;2023-06-04T04:09:32;7.03;;;4.30;;
5823;SDS011;2938;52.254;12.988;2023-06-04T04:12:15;6.60;;;3.70;;
5823;SDS011;2938;52.254;12.988;2023-06-04T04:14:48;4.32;;;3.92;;
5823;SDS011;2938;52.254;12.988;2023-06-04T04:17:18;4.45;;;3.95;;
5823;SDS011;2938;52.254;12.988;2023-06-04T04:19:53;4.97;;;4.18;;
5823;SDS011;2938;52.254;12.988;2023-06-04T04:22:24;5.32;;;3.38;;
5823;SDS011;2938;52.254;12.988;2023-06-04T04:24:50;7.68;;;3.53;;
5823;SDS011;2938;52.254;12.988;2023-06-04T04:27:18;6.32;;;4.57;;
5823;SDS011;2938;52.254;12.988;2023-06-04T04:29:44;6.82;;;4.15;;
5823;SDS011;2938;52.254;12.988;2023-06-04T04:32:18;4.28;;;3.15;;
5823;SDS011;2938;52.254;12.988;2023-06-04T04:34:54;4.38;;;3.45;;
5823;SDS011;2938;52.254;12.988;2023-06-04T04:37:20;6.93;;;3.95;;
5823;SDS011;2938;52.254;12.988;2023-06-04T04:39:47;6.25;;;3.65;;
5823;SDS011;2938;52.254;12.988;2023-06-04T04:42:21;4.68;;;3.50;;
5823;SDS011;2938;52.254;12.988;2023-06-04T04:44:59;6.35;;;4.30;;
5823;SDS011;2938;52.254;12.988;2023-06-04T04:47:25;9.60;;;3.38;;
5823;SDS011;2938;52.254;12.988;2023-06-04T04:49:53;5.57;;;3.33;;
5823;SDS011;2938;52.254;12.988;2023-06-04T04:52:19;11.32;;;4.85;;
5823;SDS011;2938;52.254;12.988;2023-06-04T04:54:47;7.78;;;4.70;;
5823;SDS011;2938;52.254;12.988;2023-06-04T04:57:23;13.40;;;3.97;;
5823;SDS011;2938;52.254;12.988;2023-06-04T04:59:51;14.52;;;4.43;;
5823;SDS011;2938;52.254;12.988;2023-06-04T05:02:20;3.95;;;3.17;;
5823;SDS011;2938;52.254;12.988;2023-06-04T05:04:51;8.88;;;3.65;;
5823;SDS011;2938;52.254;12.988;2023-06-04T05:07:17;9.13;;;3.95;;
5823;SDS011;2938;52.254;12.988;2023-06-04T05:09:48;11.20;;;3.65;;
5823;SDS011;2938;52.254;12.988;2023-06-04T05:12:19;9.32;;;3.47;;
5823;SDS011;2938;52.254;12.988;2023-06-04T05:14:45;8.15;;;3.88;;
5823;SDS011;2938;52.254;12.988;2023-06-04T05:17:21;4.78;;;3.40;;
5823;SDS011;2938;52.254;12.988;2023-06-04T05:19:54;4.45;;;3.60;;
5823;SDS011;2938;52.254;12.988;2023-06-04T05:22:26;3.78;;;2.92;;
5823;SDS011;2938;52.254;12.988;2023-06-04T05:24:53;4.00;;;3.22;;
5823;SDS011;2938;52.254;12.988;2023-06-04T05:27:19;5.32;;;2.45;;
5823;SDS011;2938;52.254;12.988;2023-06-04T05:29:45;6.47;;;3.42;;
5823;SDS011;2938;52.254;12.988;2023-06-04T05:32:13;8.20;;;3.10;;
5823;SDS011;2938;52.254;12.988;2023-06-04T05:34:47;6.35;;;2.38;;
5823;SDS011;2938;52.254;12.988;2023-06-04T05:37:16;6.03;;;3.58;;
5823;SDS011;2938;52.254;12.988;2023-06-04T05:40:00;8.27;;;3.35;;
5823;SDS011;2938;52.254;12.988;2023-06-04T05:42:31;3.97;;;2.67;;
5823;SDS011;2938;52.254;12.988;2023-06-04T05:44:59;2.97;;;2.67;;
5823;SDS011;2938;52.254;12.988;2023-06-04T05:47:34;7.13;;;3.25;;
5823;SDS011;2938;52.254;12.988;2023-06-04T05:50:02;7.07;;;3.38;;
5823;SDS011;2938;52.254;12.988;2023-06-04T05:55:16;5.05;;;2.60;;
5823;SDS011;2938;52.254;12.988;2023-06-04T05:57:45;3.35;;;2.60;;
5823;SDS011;2938;52.254;12.988;2023-06-04T06:03:25;4.95;;;2.88;;
5823;SDS011;2938;52.254;12.988;2023-06-04T06:05:57;2.33;;;2.13;;
5823;SDS011;2938;52.254;12.988;2023-06-04T06:08:25;4.07;;;2.22;;
5823;SDS011;2938;52.254;12.988;2023-06-04T06:10:50;5.32;;;2.05;;
5823;SDS011;2938;52.254;12.988;2023-06-04T06:13:15;6.13;;;2.70;;
5823;SDS011;2938;52.254;12.988;2023-06-04T06:15:41;3.63;;;2.00;;
5823;SDS011;2938;52.254;12.988;2023-06-04T06:18:10;7.45;;;2.60;;
5823;SDS011;2938;52.254;12.988;2023-06-04T06:21:02;4.50;;;2.28;;
5823;SDS011;2938;52.254;12.988;2023-06-04T06:23:27;2.70;;;2.00;;
5823;SDS011;2938;52.254;12.988;2023-06-04T06:25:55;5.18;;;2.67;;
5823;SDS011;2938;52.254;12.988;2023-06-04T06:28:22;4.65;;;2.15;;
5823;SDS011;2938;52.254;12.988;2023-06-04T06:30:57;5.47;;;2.28;;
5823;SDS011;2938;52.254;12.988;2023-06-04T06:34:01;2.40;;;1.80;;
5823;SDS011;2938;52.254;12.988;2023-06-04T06:36:27;2.47;;;1.88;;
5823;SDS011;2938;52.254;12.988;2023-06-04T06:38:53;7.68;;;2.17;;
5823;SDS011;2938;52.254;12.988;2023-06-04T06:41:19;5.05;;;1.75;;
5823;SDS011;2938;52.254;12.988;2023-06-04T06:43:47;2.65;;;1.83;;
5823;SDS011;2938;52.254;12.988;2023-06-04T06:46:15;10.40;;;2.28;;
5823;SDS011;2938;52.254;12.988;2023-06-04T06:48:41;6.25;;;2.35;;
5823;SDS011;2938;52.254;12.988;2023-06-04T06:51:12;2.33;;;1.77;;
5823;SDS011;2938;52.254;12.988;2023-06-04T06:53:37;4.65;;;2.28;;
5823;SDS011;2938;52.254;12.988;2023-06-04T06:56:03;9.35;;;2.67;;
5823;SDS011;2938;52.254;12.988;2023-06-04T06:58:28;3.55;;;1.83;;
5823;SDS011;2938;52.254;12.988;2023-06-04T07:00:54;3.17;;;1.80;;
5823;SDS011;2938;52.254;12.988;2023-06-04T07:03:22;2.88;;;1.73;;
5823;SDS011;2938;52.254;12.988;2023-06-04T07:06:03;10.38;;;2.38;;
5823;SDS011;2938;52.254;12.988;2023-06-04T07:08:29;3.70;;;1.85;;
5823;SDS011;2938;52.254;12.988;2023-06-04T07:10:55;5.38;;;2.00;;
5823;SDS011;2938;52.254;12.988;2023-06-04T07:13:28;3.55;;;1.67;;
5823;SDS011;2938;52.254;12.988;2023-06-04T07:16:06;2.42;;;1.60;;
5823;SDS011;2938;52.254;12.988;2023-06-04T07:18:37;6.15;;;1.85;;
5823;SDS011;2938;52.254;12.988;2023-06-04T07:24:32;14.32;;;2.80;;
5823;SDS011;2938;52.254;12.988;2023-06-04T07:26:58;10.13;;;2.78;;
5823;SDS011;2938;52.254;12.988;2023-06-04T07:29:43;4.65;;;2.00;;
5823;SDS011;2938;52.254;12.988;2023-06-04T07:36:03;2.42;;;1.40;;
5823;SDS011;2938;52.254;12.988;2023-06-04T07:38:41;1.67;;;1.40;;
5823;SDS011;2938;52.254;12.988;2023-06-04T07:42:03;2.15;;;1.13;;
5823;SDS011;2938;52.254;12.988;2023-06-04T07:44:55;7.80;;;1.88;;
5823;SDS011;2938;52.254;12.988;2023-06-04T07:47:47;2.53;;;1.70;;
5823;SDS011;2938;52.254;12.988;2023-06-04T07:50:13;1.27;;;1.17;;
5823;SDS011;2938;52.254;12.988;2023-06-04T07:52:38;3.40;;;1.00;;
5823;SDS011;2938;52.254;12.988;2023-06-04T07:55:04;2.20;;;1.52;;
5823;SDS011;2938;52.254;12.988;2023-06-04T07:57:30;3.30;;;1.42;;
5823;SDS011;2938;52.254;12.988;2023-06-04T07:59:59;2.47;;;0.90;;
5823;SDS011;2938;52.254;12.988;2023-06-04T08:02:42;4.20;;;1.25;;
5823;SDS011;2938;52.254;12.988;2023-06-04T08:05:17;5.60;;;1.65;;
5823;SDS011;2938;52.254;12.988;2023-06-04T08:08:02;4.00;;;1.58;;
5823;SDS011;2938;52.254;12.988;2023-06-04T08:11:03;3.15;;;1.13;;
5823;SDS011;2938;52.254;12.988;2023-06-04T08:16:21;2.72;;;1.40;;
5823;SDS011;2938;52.254;12.988;2023-06-04T08:18:48;4.32;;;1.83;;
5823;SDS011;2938;52.254;12.988;2023-06-04T08:21:13;2.85;;;1.23;;
5823;SDS011;2938;52.254;12.988;2023-06-04T08:23:42;3.30;;;1.00;;
5823;SDS011;2938;52.254;12.988;2023-06-04T08:26:07;2.47;;;0.90;;
5823;SDS011;2938;52.254;12.988;2023-06-04T08:28:32;1.58;;;0.88;;
5823;SDS011;2938;52.254;12.988;2023-06-04T08:30:58;3.70;;;0.65;;
5823;SDS011;2938;52.254;12.988;2023-06-04T08:33:23;3.58;;;1.50;;
5823;SDS011;2938;52.254;12.988;2023-06-04T08:35:52;1.60;;;1.05;;
5823;SDS011;2938;52.254;12.988;2023-06-04T08:38:17;2.10;;;1.17;;
5823;SDS011;2938;52.254;12.988;2023-06-04T08:40:42;2.03;;;1.17;;
5823;SDS011;2938;52.254;12.988;2023-06-04T08:43:09;2.30;;;1.05;;
5823;SDS011;2938;52.254;12.988;2023-06-04T08:45:38;1.75;;;1.30;;
5823;SDS011;2938;52.254;12.988;2023-06-04T08:48:09;1.80;;;0.82;;
5823;SDS011;2938;52.254;12.988;2023-06-04T08:50:38;1.20;;;1.05;;
5823;SDS011;2938;52.254;12.988;2023-06-04T08:53:05;4.20;;;1.65;;
5823;SDS011;2938;52.254;12.988;2023-06-04T08:55:40;7.18;;;1.80;;
5823;SDS011;2938;52.254;12.988;2023-06-04T08:59:06;1.95;;;1.50;;
5823;SDS011;2938;52.254;12.988;2023-06-04T09:01:32;4.20;;;1.10;;
5823;SDS011;2938;52.254;12.988;2023-06-04T09:03:59;2.58;;;1.17;;
5823;SDS011;2938;52.254;12.988;2023-06-04T09:06:26;3.80;;;1.20;;
5823;SDS011;2938;52.254;12.988;2023-06-04T09:08:52;5.93;;;1.40;;
5823;SDS011;2938;52.254;12.988;2023-06-04T09:11:23;1.63;;;0.80;;
5823;SDS011;2938;52.254;12.988;2023-06-04T09:13:52;3.75;;;1.30;;
5823;SDS011;2938;52.254;12.988;2023-06-04T09:16:18;3.58;;;1.63;;
5823;SDS011;2938;52.254;12.988;2023-06-04T09:18:43;2.38;;;1.38;;
5823;SDS011;2938;52.254;12.988;2023-06-04T09:21:10;6.20;;;1.15;;
5823;SDS011;2938;52.254;12.988;2023-06-04T09:23:53;3.47;;;1.23;;
5823;SDS011;2938;52.254;12.988;2023-06-04T09:26:22;1.30;;;1.02;;
5823;SDS011;2938;52.254;12.988;2023-06-04T09:28:50;6.38;;;1.50;;
5823;SDS011;2938;52.254;12.988;2023-06-04T09:31:20;1.17;;;1.00;;
5823;SDS011;2938;52.254;12.988;2023-06-04T09:33:51;9.25;;;1.40;;
5823;SDS011;2938;52.254;12.988;2023-06-04T09:36:17;4.72;;;1.23;;
5823;SDS011;2938;52.254;12.988;2023-06-04T09:38:42;7.05;;;1.40;;
5823;SDS011;2938;52.254;12.988;2023-06-04T09:41:11;3.22;;;1.25;;
5823;SDS011;2938;52.254;12.988;2023-06-04T09:43:41;1.35;;;1.10;;
5823;SDS011;2938;52.254;12.988;2023-06-04T09:46:10;6.40;;;1.95;;
5823;SDS011;2938;52.254;12.988;2023-06-04T09:48:38;3.80;;;1.15;;
5823;SDS011;2938;52.254;12.988;2023-06-04T09:51:08;2.13;;;1.20;;
5823;SDS011;2938;52.254;12.988;2023-06-04T09:53:40;3.85;;;1.35;;
5823;SDS011;2938;52.254;12.988;2023-06-04T09:56:06;1.10;;;0.90;;
5823;SDS011;2938;52.254;12.988;2023-06-04T09:58:32;1.17;;;0.80;;
5823;SDS011;2938;52.254;12.988;2023-06-04T10:00:59;2.15;;;1.42;;
5823;SDS011;2938;52.254;12.988;2023-06-04T10:03:25;4.10;;;1.10;;
5823;SDS011;2938;52.254;12.988;2023-06-04T10:05:53;23.73;;;3.10;;
5823;SDS011;2938;52.254;12.988;2023-06-04T10:08:21;3.67;;;1.00;;
5823;SDS011;2938;52.254;12.988;2023-06-04T10:11:51;1.92;;;1.38;;
5823;SDS011;2938;52.254;12.988;2023-06-04T10:14:25;7.70;;;1.10;;
5823;SDS011;2938;52.254;12.988;2023-06-04T10:16:55;5.90;;;1.35;;
5823;SDS011;2938;52.254;12.988;2023-06-04T10:19:25;2.58;;;1.38;;
5823;SDS011;2938;52.254;12.988;2023-06-04T10:21:52;2.13;;;1.55;;
5823;SDS011;2938;52.254;12.988;2023-06-04T10:24:19;3.80;;;1.25;;
5823;SDS011;2938;52.254;12.988;2023-06-04T10:26:50;2.10;;;1.20;;
5823;SDS011;2938;52.254;12.988;2023-06-04T10:29:16;3.17;;;1.88;;
5823;SDS011;2938;52.254;12.988;2023-06-04T10:31:44;2.95;;;1.20;;
5823;SDS011;2938;52.254;12.988;2023-06-04T10:34:18;2.22;;;1.45;;
5823;SDS011;2938;52.254;12.988;2023-06-04T10:36:44;2.33;;;1.60;;
5823;SDS011;2938;52.254;12.988;2023-06-04T10:39:13;1.45;;;1.10;;
5823;SDS011;2938;52.254;12.988;2023-06-04T10:41:40;1.88;;;1.33;;
5823;SDS011;2938;52.254;12.988;2023-06-04T10:44:11;1.13;;;1.02;;
5823;SDS011;2938;52.254;12.988;2023-06-04T10:46:39;4.90;;;1.60;;
5823;SDS011;2938;52.254;12.988;2023-06-04T10:49:05;4.85;;;1.40;;
5823;SDS011;2938;52.254;12.988;2023-06-04T10:51:31;3.90;;;1.70;;
5823;SDS011;2938;52.254;12.988;2023-06-04T10:53:58;0.90;;;0.90;;
5823;SDS011;2938;52.254;12.988;2023-06-04T10:56:24;15.10;;;2.45;;
5823;SDS011;2938;52.254;12.988;2023-06-04T10:58:53;6.88;;;1.35;;
5823;SDS011;2938;52.254;12.988;2023-06-04T11:01:25;2.53;;;1.67;;
5823;SDS011;2938;52.254;12.988;2023-06-04T11:03:58;1.92;;;1.45;;
5823;SDS011;2938;52.254;12.988;2023-06-04T11:06:23;4.95;;;1.52;;
5823;SDS011;2938;52.254;12.988;2023-06-04T11:09:05;10.90;;;2.28;;
5823;SDS011;2938;52.254;12.988;2023-06-04T11:11:31;4.22;;;1.50;;
5823;SDS011;2938;52.254;12.988;2023-06-04T11:14:06;6.50;;;1.73;;
5823;SDS011;2938;52.254;12.988;2023-06-04T11:16:42;4.63;;;1.80;;
5823;SDS011;2938;52.254;12.988;2023-06-04T11:19:08;3.80;;;1.85;;
5823;SDS011;2938;52.254;12.988;2023-06-04T11:21:34;6.72;;;1.70;;
5823;SDS011;2938;52.254;12.988;2023-06-04T11:24:01;5.57;;;1.67;;
5823;SDS011;2938;52.254;12.988;2023-06-04T11:26:34;1.73;;;1.10;;
5823;SDS011;2938;52.254;12.988;2023-06-04T11:29:06;6.38;;;1.20;;
5823;SDS011;2938;52.254;12.988;2023-06-04T11:31:46;6.75;;;1.48;;
5823;SDS011;2938;52.254;12.988;2023-06-04T11:36:51;2.70;;;1.45;;
5823;SDS011;2938;52.254;12.988;2023-06-04T11:39:17;8.35;;;1.80;;
5823;SDS011;2938;52.254;12.988;2023-06-04T11:41:43;4.35;;;1.17;;
5823;SDS011;2938;52.254;12.988;2023-06-04T11:44:09;5.03;;;1.98;;
5823;SDS011;2938;52.254;12.988;2023-06-04T11:46:35;2.83;;;1.90;;
5823;SDS011;2938;52.254;12.988;2023-06-04T11:49:04;3.45;;;1.48;;
5823;SDS011;2938;52.254;12.988;2023-06-04T11:51:30;2.85;;;1.42;;
5823;SDS011;2938;52.254;12.988;2023-06-04T11:53:56;1.15;;;1.05;;
5823;SDS011;2938;52.254;12.988;2023-06-04T11:56:22;6.03;;;1.30;;
5823;SDS011;2938;52.254;12.988;2023-06-04T11:58:56;4.90;;;1.73;;
5823;SDS011;2938;52.254;12.988;2023-06-04T12:01:23;4.75;;;2.67;;
5823;SDS011;2938;52.254;12.988;2023-06-04T12:03:53;13.03;;;2.00;;
5823;SDS011;2938;52.254;12.988;2023-06-04T12:06:19;2.72;;;1.48;;
5823;SDS011;2938;52.254;12.988;2023-06-04T12:08:55;4.70;;;1.23;;
5823;SDS011;2938;52.254;12.988;2023-06-04T12:11:27;3.17;;;1.55;;
5823;SDS011;2938;52.254;12.988;2023-06-04T12:13:56;6.00;;;1.15;;
5823;SDS011;2938;52.254;12.988;2023-06-04T12:16:29;4.85;;;1.67;;
5823;SDS011;2938;52.254;12.988;2023-06-04T12:19:06;5.32;;;1.70;;
5823;SDS011;2938;52.254;12.988;2023-06-04T12:21:36;7.25;;;1.52;;
5823;SDS011;2938;52.254;12.988;2023-06-04T12:24:10;1.47;;;1.37;;
5823;SDS011;2938;52.254;12.988;2023-06-04T12:26:44;2.40;;;1.60;;
5823;SDS011;2938;52.254;12.988;2023-06-04T12:29:31;2.28;;;1.70;;
5823;SDS011;2938;52.254;12.988;2023-06-04T12:32:13;5.13;;;1.63;;
5823;SDS011;2938;52.254;12.988;2023-06-04T12:34:41;2.80;;;1.23;;
5823;SDS011;2938;52.254;12.988;2023-06-04T12:37:09;4.72;;;1.42;;
5823;SDS011;2938;52.254;12.988;2023-06-04T12:39:35;2.47;;;2.00;;
5823;SDS011;2938;52.254;12.988;2023-06-04T12:42:02;1.50;;;1.23;;
5823;SDS011;2938;52.254;12.988;2023-06-04T12:44:30;4.07;;;1.65;;
5823;SDS011;2938;52.254;12.988;2023-06-04T12:46:55;3.30;;;1.48;;
5823;SDS011;2938;52.254;12.988;2023-06-04T12:49:21;7.57;;;2.40;;
5823;SDS011;2938;52.254;12.988;2023-06-04T12:51:47;3.42;;;1.50;;
5823;SDS011;2938;52.254;12.988;2023-06-04T12:54:12;4.80;;;1.45;;
5823;SDS011;2938;52.254;12.988;2023-06-04T12:56:39;4.95;;;1.48;;
5823;SDS011;2938;52.254;12.988;2023-06-04T12:59:05;2.10;;;1.75;;
5823;SDS011;2938;52.254;12.988;2023-06-04T13:01:31;3.15;;;1.30;;
5823;SDS011;2938;52.254;12.988;2023-06-04T13:03:59;6.45;;;1.90;;
5823;SDS011;2938;52.254;12.988;2023-06-04T13:06:25;5.93;;;1.65;;
5823;SDS011;2938;52.254;12.988;2023-06-04T13:08:51;5.55;;;2.08;;
5823;SDS011;2938;52.254;12.988;2023-06-04T13:11:17;1.40;;;1.27;;
5823;SDS011;2938;52.254;12.988;2023-06-04T13:13:42;4.85;;;1.00;;
5823;SDS011;2938;52.254;12.988;2023-06-04T13:16:08;1.85;;;1.63;;
5823;SDS011;2938;52.254;12.988;2023-06-04T13:18:34;6.63;;;1.70;;
5823;SDS011;2938;52.254;12.988;2023-06-04T13:20:59;1.77;;;1.30;;
5823;SDS011;2938;52.254;12.988;2023-06-04T13:23:26;3.85;;;1.77;;
5823;SDS011;2938;52.254;12.988;2023-06-04T13:25:51;5.47;;;1.98;;
5823;SDS011;2938;52.254;12.988;2023-06-04T13:28:17;4.30;;;1.40;;
5823;SDS011;2938;52.254;12.988;2023-06-04T13:30:42;5.82;;;1.55;;
5823;SDS011;2938;52.254;12.988;2023-06-04T13:33:08;6.18;;;1.58;;
5823;SDS011;2938;52.254;12.988;2023-06-04T13:35:33;8.40;;;2.42;;
5823;SDS011;2938;52.254;12.988;2023-06-04T13:37:59;5.10;;;2.47;;
5823;SDS011;2938;52.254;12.988;2023-06-04T13:40:24;1.58;;;1.27;;
5823;SDS011;2938;52.254;12.988;2023-06-04T13:42:50;1.55;;;1.15;;
5823;SDS011;2938;52.254;12.988;2023-06-04T13:45:15;1.25;;;1.15;;
5823;SDS011;2938;52.254;12.988;2023-06-04T13:47:41;1.92;;;1.02;;
5823;SDS011;2938;52.254;12.988;2023-06-04T13:50:07;2.70;;;1.55;;
5823;SDS011;2938;52.254;12.988;2023-06-04T13:52:34;1.95;;;1.30;;
5823;SDS011;2938;52.254;12.988;2023-06-04T13:55:02;4.25;;;1.38;;
5823;SDS011;2938;52.254;12.988;2023-06-04T13:57:28;7.13;;;1.70;;
5823;SDS011;2938;52.254;12.988;2023-06-04T13:59:53;7.85;;;2.15;;
5823;SDS011;2938;52.254;12.988;2023-06-04T14:02:19;1.75;;;1.55;;
5823;SDS011;2938;52.254;12.988;2023-06-04T14:04:45;5.68;;;2.22;;
5823;SDS011;2938;52.254;12.988;2023-06-04T14:07:11;1.67;;;1.33;;
5823;SDS011;2938;52.254;12.988;2023-06-04T14:09:37;2.33;;;2.00;;
5823;SDS011;2938;52.254;12.988;2023-06-04T14:12:03;5.13;;;1.52;;
5823;SDS011;2938;52.254;12.988;2023-06-04T14:14:29;4.97;;;2.10;;
5823;SDS011;2938;52.254;12.988;2023-06-04T14:19:26;4.43;;;1.50;;
5823;SDS011;2938;52.254;12.988;2023-06-04T14:21:56;3.20;;;1.58;;
5823;SDS011;2938;52.254;12.988;2023-06-04T14:24:21;1.73;;;1.50;;
5823;SDS011;2938;52.254;12.988;2023-06-04T14:26:46;2.17;;;1.48;;
5823;SDS011;2938;52.254;12.988;2023-06-04T14:29:13;3.22;;;1.60;;
5823;SDS011;2938;52.254;12.988;2023-06-04T14:31:39;2.40;;;1.50;;
5823;SDS011;2938;52.254;12.988;2023-06-04T14:34:05;7.07;;;1.58;;
5823;SDS011;2938;52.254;12.988;2023-06-04T14:36:32;3.95;;;1.45;;
5823;SDS011;2938;52.254;12.988;2023-06-04T14:39:00;4.10;;;1.55;;
5823;SDS011;2938;52.254;12.988;2023-06-04T14:41:25;6.90;;;2.00;;
5823;SDS011;2938;52.254;12.988;2023-06-04T14:43:52;4.63;;;1.40;;
5823;SDS011;2938;52.254;12.988;2023-06-04T14:46:17;8.98;;;2.25;;
5823;SDS011;2938;52.254;12.988;2023-06-04T14:48:42;4.05;;;2.13;;
5823;SDS011;2938;52.254;12.988;2023-06-04T14:51:08;5.90;;;1.33;;
5823;SDS011;2938;52.254;12.988;2023-06-04T14:53:33;6.88;;;1.58;;
5823;SDS011;2938;52.254;12.988;2023-06-04T14:55:59;1.98;;;1.70;;
5823;SDS011;2938;52.254;12.988;2023-06-04T14:58:24;3.53;;;1.83;;
5823;SDS011;2938;52.254;12.988;2023-06-04T15:00:55;2.03;;;1.25;;
5823;SDS011;2938;52.254;12.988;2023-06-04T15:03:24;2.72;;;1.52;;
5823;SDS011;2938;52.254;12.988;2023-06-04T15:05:51;1.70;;;1.40;;
5823;SDS011;2938;52.254;12.988;2023-06-04T15:08:17;3.35;;;1.60;;
5823;SDS011;2938;52.254;12.988;2023-06-04T15:10:42;3.03;;;1.10;;
5823;SDS011;2938;52.254;12.988;2023-06-04T15:13:08;1.65;;;1.38;;
5823;SDS011;2938;52.254;12.988;2023-06-04T15:15:33;2.60;;;1.83;;
5823;SDS011;2938;52.254;12.988;2023-06-04T15:18:12;1.33;;;1.23;;
5823;SDS011;2938;52.254;12.988;2023-06-04T15:20:38;1.75;;;1.63;;
5823;SDS011;2938;52.254;12.988;2023-06-04T15:23:03;3.10;;;1.35;;
5823;SDS011;2938;52.254;12.988;2023-06-04T15:25:29;1.58;;;1.40;;
5823;SDS011;2938;52.254;12.988;2023-06-04T15:27:54;4.38;;;1.90;;
5823;SDS011;2938;52.254;12.988;2023-06-04T15:30:20;2.75;;;1.50;;
5823;SDS011;2938;52.254;12.988;2023-06-04T15:32:45;4.78;;;1.70;;
5823;SDS011;2938;52.254;12.988;2023-06-04T15:35:11;2.25;;;1.85;;
5823;SDS011;2938;52.254;12.988;2023-06-04T15:37:36;2.10;;;1.25;;
5823;SDS011;2938;52.254;12.988;2023-06-04T15:40:02;8.43;;;2.03;;
5823;SDS011;2938;52.254;12.988;2023-06-04T15:42:32;2.80;;;1.67;;
5823;SDS011;2938;52.254;12.988;2023-06-04T15:44:57;2.22;;;1.60;;
5823;SDS011;2938;52.254;12.988;2023-06-04T15:47:23;2.72;;;1.60;;
5823;SDS011;2938;52.254;12.988;2023-06-04T15:49:48;3.80;;;2.00;;
5823;SDS011;2938;52.254;12.988;2023-06-04T15:52:14;3.85;;;1.85;;